Time;durP1;ratioP1;P1;durP2;ratioP2;P2;SDS_P1;SDS_P2;PMS_P1;PMS_P2;Temp;Humidity;BMP_temperature;BMP_pressure;BME280_temperature;BME280_humidity;BME280_pressure;Samples;Min_cycle;Max_cycle;Signal;HPM_P1;HPM_P2
2019/04/09 00:01:28;;;;;;;19.3;17.2;;;;;;;;;;;;;
2019/04/09 00:05:29;;;;;;;16.9;14.7;;;;;;;;;;;;;
2019/04/09 00:07:55;;;;;;;20.6;18;;;;;;;;;;;;;
2019/04/09 00:10:22;;;;;;;21.6;18.5;;;;;;;;;;;;;
2019/04/09 00:12:46;;;;;;;18.7;16.3;;;;;;;;;;;;;
2019/04/09 00:15:11;;;;;;;22.2;19.3;;;;;;;;;;;;;
2019/04/09 00:17:36;;;;;;;22.9;19.7;;;;;;;;;;;;;
2019/04/09 00:20:01;;;;;;;19.8;17.4;;;;;;;;;;;;;
2019/04/09 00:22:26;;;;;;;24.7;21.2;;;;;;;;;;;;;
2019/04/09 00:24:51;;;;;;;24.4;21.7;;;;;;;;;;;;;
2019/04/09 00:27:16;;;;;;;29.6;23.2;;;;;;;;;;;;;
2019/04/09 00:29:41;;;;;;;33.5;25.8;;;;;;;;;;;;;
2019/04/09 00:32:07;;;;;;;41;30.9;;;;;;;;;;;;;
2019/04/09 00:34:32;;;;;;;47.6;34.8;;;;;;;;;;;;;
2019/04/09 00:36:57;;;;;;;49.5;35.3;;;;;;;;;;;;;
2019/04/09 00:39:22;;;;;;;57.1;37.6;;;;;;;;;;;;;
2019/04/09 00:41:47;;;;;;;60.4;40.2;;;;;;;;;;;;;
2019/04/09 00:44:12;;;;;;;68.6;43.5;;;;;;;;;;;;;
2019/04/09 00:46:38;;;;;;;63.1;39.6;;;;;;;;;;;;;
2019/04/09 00:49:03;;;;;;;63.4;39.4;;;;;;;;;;;;;
2019/04/09 00:51:28;;;;;;;68.7;40.8;;;;;;;;;;;;;
2019/04/09 00:53:53;;;;;;;81.2;44.1;;;;;;;;;;;;;
2019/04/09 00:56:18;;;;;;;96.6;49.4;;;;;;;;;;;;;
2019/04/09 00:58:44;;;;;;;102;50.6;;;;;;;;;;;;;
2019/04/09 01:01:11;;;;;;;91.3;50.2;;;;;;;;;;;;;
2019/04/09 01:03:34;;;;;;;89.1;49.6;;;;;;;;;;;;;
2019/04/09 01:05:59;;;;;;;109;52.6;;;;;;;;;;;;;
2019/04/09 01:08:24;;;;;;;120.7;55.4;;;;;;;;;;;;;
2019/04/09 01:10:49;;;;;;;144.5;57.9;;;;;;;;;;;;;
2019/04/09 01:13:14;;;;;;;151.5;61.9;;;;;;;;;;;;;
2019/04/09 01:15:40;;;;;;;121.7;57;;;;;;;;;;;;;
2019/04/09 01:18:05;;;;;;;116.3;55.6;;;;;;;;;;;;;
2019/04/09 01:20:30;;;;;;;145.4;57.6;;;;;;;;;;;;;
2019/04/09 01:22:55;;;;;;;122.3;59.1;;;;;;;;;;;;;
2019/04/09 01:25:27;;;;;;;123.6;58.5;;;;;;;;;;;;;
2019/04/09 01:27:45;;;;;;;142.1;56.9;;;;;;;;;;;;;
2019/04/09 01:30:21;;;;;;;127;55.8;;;;;;;;;;;;;
2019/04/09 01:32:51;;;;;;;127;58.6;;;;;;;;;;;;;
2019/04/09 01:35:16;;;;;;;132.1;59.1;;;;;;;;;;;;;
2019/04/09 01:46:44;;;;;;;135.6;58;;;;;;;;;;;;;
2019/04/09 02:00:42;;;;;;;159.8;65;;;;;;;;;;;;;
2019/04/09 02:05:34;;;;;;;185.1;67.9;;;;;;;;;;;;;
2019/04/09 02:08:07;;;;;;;187.4;69.5;;;;;;;;;;;;;
2019/04/09 02:10:29;;;;;;;198.6;71.2;;;;;;;;;;;;;
2019/04/09 02:13:19;;;;;;;158.9;65.7;;;;;;;;;;;;;
2019/04/09 02:15:17;;;;;;;159.8;65.1;;;;;;;;;;;;;
2019/04/09 02:17:34;;;;;;;178.2;68;;;;;;;;;;;;;
2019/04/09 02:27:35;;;;;;;160.4;66;;;;;;;;;;;;;
2019/04/09 02:30:38;;;;;;;149.6;65.2;;;;;;;;;;;;;
2019/04/09 02:36:07;;;;;;;159.8;64.4;;;;;;;;;;;;;
2019/04/09 02:38:11;;;;;;;182.7;68.8;;;;;;;;;;;;;
2019/04/09 02:43:01;;;;;;;160.7;68.7;;;;;;;;;;;;;
2019/04/09 02:48:54;;;;;;;177.2;71;;;;;;;;;;;;;
2019/04/09 02:51:46;;;;;;;164.9;68.9;;;;;;;;;;;;;
2019/04/09 02:59:00;;;;;;;147.8;71.7;;;;;;;;;;;;;
2019/04/09 03:08:43;;;;;;;142;67.6;;;;;;;;;;;;;
2019/04/09 03:13:34;;;;;;;140.8;67.4;;;;;;;;;;;;;
2019/04/09 03:19:42;;;;;;;165.1;71.3;;;;;;;;;;;;;
2019/04/09 03:21:18;;;;;;;170;68.9;;;;;;;;;;;;;
2019/04/09 03:26:09;;;;;;;136.6;66.1;;;;;;;;;;;;;
2019/04/09 03:28:52;;;;;;;144.9;65.7;;;;;;;;;;;;;
2019/04/09 03:31:00;;;;;;;150.4;69.7;;;;;;;;;;;;;
2019/04/09 03:36:06;;;;;;;164.3;64.9;;;;;;;;;;;;;
2019/04/09 03:38:34;;;;;;;139.1;66.4;;;;;;;;;;;;;
2019/04/09 03:40:39;;;;;;;164.9;71;;;;;;;;;;;;;
2019/04/09 03:45:33;;;;;;;173.9;72.1;;;;;;;;;;;;;
2019/04/09 03:53:13;;;;;;;155.1;66;;;;;;;;;;;;;
2019/04/09 03:55:23;;;;;;;184.1;67.8;;;;;;;;;;;;;
2019/04/09 04:02:45;;;;;;;141.6;63;;;;;;;8.1;0;951.8939;;;;
2019/04/09 04:05:06;;;;;;;165.5;68;;;;;;;8.09;0;951.8954;;;;
2019/04/09 04:08:40;;;;;;;124.7;59.7;;;;;;;8.12;0;951.905;;;;
2019/04/09 04:09:58;;;;;;;186.3;69.6;;;;;;;8.16;0;951.8539;;;;
2019/04/09 04:12:30;;;;;;;150.3;67.7;;;;;;;8.15;0;951.8372;;;;
2019/04/09 04:14:44;;;;;;;154.8;69;;;;;;;8.11;0;951.7872;;;;
2019/04/09 04:32:59;;;;;;;147;72.4;;;;;;;8.07;0;951.7444;;;;
2019/04/09 04:38:13;;;;;;;168.8;76.1;;;;;;;8.11;0;951.7825;;;;
2019/04/09 04:43:03;;;;;;;181.1;76.5;;;;;;;8.1;0;951.7078;;;;
2019/04/09 04:45:15;;;;;;;191.7;71.8;;;;;;;8.11;0;951.7491;;;;
2019/04/09 04:47:51;;;;;;;182.8;69.9;;;;;;;8.14;0;951.7841;;;;
2019/04/09 04:52:27;;;;;;;156.5;73.4;;;;;;;8.02;0;951.7708;;;;
2019/04/09 04:57:12;;;;;;;187.4;77.7;;;;;;;8.09;0;951.8064;;;;
2019/04/09 04:59:52;;;;;;;191.4;74.2;;;;;;;8.12;0;951.8541;;;;
2019/04/09 05:02:10;;;;;;;129.5;66.3;;;;;;;8.09;0;951.8954;;;;
2019/04/09 05:04:36;;;;;;;151.2;69;;;;;;;8.13;0;951.8865;;;;
2019/04/09 05:07:28;;;;;;;117.9;62.8;;;;;;;7.93;0;951.8822;;;;
2019/04/09 05:12:35;;;;;;;125.6;65.6;;;;;;;7.91;0;951.8934;;;;
2019/04/09 05:14:18;;;;;;;154.9;70;;;;;;;7.94;0;951.9244;;;;
2019/04/09 05:22:47;;;;;;;183.7;74.1;;;;;;;7.99;0;951.9774;;;;
2019/04/09 05:30:28;;;;;;;188.2;73.4;;;;;;;8.04;0;952.0529;;;;
2019/04/09 05:37:56;;;;;;;161.9;71.9;;;;;;;8.1;0;952.063;;;;
2019/04/09 05:42:56;;;;;;;215.6;79.2;;;;;;;8.13;0;952.0338;;;;
2019/04/09 05:48:54;;;;;;;197.3;76.5;;;;;;;8.18;0;952.1696;;;;
2019/04/09 05:50:11;;;;;;;186;74.8;;;;;;;8.2;0;952.1122;;;;
2019/04/09 05:52:29;;;;;;;200.6;77.3;;;;;;;8.2;0;952.1886;;;;
2019/04/09 06:01:01;;;;;;;136.5;69.8;;;;;;;8.2;0;952.1631;;;;
2019/04/09 06:04:13;;;;;;;169.1;76.2;;;;;;;8.24;0;952.2269;;;;
2019/04/09 06:06:30;;;;;;;166;75.8;;;;;;;8.27;0;952.1266;;;;
2019/04/09 06:10:29;;;;;;;155.5;70.6;;;;;;;8.32;0;952.0956;;;;
2019/04/09 06:12:54;;;;;;;169.7;74.1;;;;;;;8.35;0;952.0201;;;;
2019/04/09 06:15:19;;;;;;;145.5;70.5;;;;;;;8.4;0;952.0486;;;;
2019/04/09 06:17:49;;;;;;;159.4;71.6;;;;;;;8.4;0;952.0359;;;;
2019/04/09 06:20:14;;;;;;;156;71.7;;;;;;;8.44;0;952.0786;;;;
2019/04/09 06:22:40;;;;;;;156.4;74.3;;;;;;;8.47;0;952.0831;;;;
2019/04/09 06:25:05;;;;;;;176.5;70.9;;;;;;;8.51;0;952.0832;;;;
2019/04/09 06:27:30;;;;;;;153.2;70.5;;;;;;;8.56;0;952.1205;;;;
2019/04/09 06:29:58;;;;;;;162.2;73.3;;;;;;;8.55;0;952.0877;;;;
2019/04/09 06:32:41;;;;;;;175.9;75;;;;;;;8.57;0;952.0725;;;;
2019/04/09 06:35:01;;;;;;;162.4;70.2;;;;;;;8.63;0;952.0876;;;;
2019/04/09 06:37:30;;;;;;;142;68.9;;;;;;;8.62;0;952.0374;;;;
2019/04/09 06:45:02;;;;;;;152.8;68.5;;;;;;;8.72;0;952.0475;;;;
2019/04/09 06:48:01;;;;;;;146;69;;;;;;;8.71;0;952.0744;;;;
2019/04/09 06:49:50;;;;;;;127.8;67.9;;;;;;;8.69;0;952.0507;;;;
2019/04/09 06:53:01;;;;;;;133.7;65.3;;;;;;;8.75;0;952.044;;;;
2019/04/09 06:54:59;;;;;;;118.1;65;;;;;;;8.76;0;952.0519;;;;
2019/04/09 07:05:02;;;;;;;123.9;67.5;;;;;;;8.86;0;952.0747;;;;
2019/04/09 07:09:38;;;;;;;118.7;64.4;;;;;;;8.98;0;952.015;;;;
2019/04/09 07:21:19;;;;;;;107.3;63.5;;;;;;;9.16;0;951.9952;;;;
2019/04/09 07:23:24;;;;;;;102.5;63.3;;;;;;;9.28;0;951.8972;;;;
2019/04/09 07:28:16;;;;;;;79;56;;;;;;;9.35;0;951.9778;;;;
2019/04/09 07:30:49;;;;;;;89.1;59.4;;;;;;;9.5;0;951.9657;;;;
2019/04/09 07:33:15;;;;;;;76.9;53.8;;;;;;;9.63;0;951.9805;;;;
2019/04/09 07:41:24;;;;;;;70.9;51.1;;;;;;;9.84;0;951.9733;;;;
2019/04/09 07:43:45;;;;;;;68.9;49.3;;;;;;;9.94;0;951.9406;;;;
2019/04/09 07:59:22;;;;;;;58.7;47.9;;;;;;;11.34;85.52637;951.8702;;;;
2019/04/09 08:01:34;;;;;;;41.9;37.4;;;;;;;11.79;100;951.829;;;;
2019/04/09 08:03:45;;;;;;;39.9;35.6;;;;;;;12.19;100;951.8055;;;;
2019/04/09 08:21:55;;;;;;;42.2;37.6;;;;;;;12.45;100;951.7687;;;;
2019/04/09 08:28:34;;;;;;;49.7;41.1;;;;;;;12.46;100;951.7636;;;;
2019/04/09 08:29:53;;;;;;;46.3;39.4;;;;;;;12.5;100;951.7579;;;;
2019/04/09 08:32:08;;;;;;;46.6;41.3;;;;;;;12.57;100;951.7958;;;;
2019/04/09 08:35:07;;;;;;;54.8;46.1;;;;;;;13.07;100;951.742;;;;
2019/04/09 08:37:09;;;;;;;47.9;42.6;;;;;;;13.34;100;951.8483;;;;
2019/04/09 08:39:33;;;;;;;47.6;41.9;;;;;;;13.23;100;951.854;;;;
2019/04/09 08:41:52;;;;;;;51;44.2;;;;;;;12.65;100;951.8672;;;;
2019/04/09 08:44:42;;;;;;;56.6;47.4;;;;;;;12.08;100;951.8187;;;;
2019/04/09 08:47:18;;;;;;;52.7;46.5;;;;;;;12.53;100;951.8222;;;;
2019/04/09 08:55:14;;;;;;;58.3;50.2;;;;;;;12.66;100;951.8059;;;;
2019/04/09 08:57:12;;;;;;;59.6;48.9;;;;;;;12.45;100;951.7086;;;;
2019/04/09 08:59:49;;;;;;;58.7;51;;;;;;;12.34;100;951.7444;;;;
2019/04/09 09:04:31;;;;;;;58.3;49.2;;;;;;;13.12;100;951.7402;;;;
2019/04/09 09:09:28;;;;;;;59.1;48.8;;;;;;;13.5;100;951.6442;;;;
2019/04/09 09:12:26;;;;;;;55.9;47.8;;;;;;;13.43;100;951.7211;;;;
2019/04/09 09:16:48;;;;;;;64.7;53.4;;;;;;;13.12;100;951.7186;;;;
2019/04/09 09:19:24;;;;;;;68;54.4;;;;;;;13.19;100;951.6586;;;;
2019/04/09 09:21:50;;;;;;;64.6;54.3;;;;;;;13.45;100;951.5995;;;;
2019/04/09 09:27:20;;;;;;;64.9;54.7;;;;;;;13.22;100;951.6802;;;;
2019/04/09 09:32:03;;;;;;;67.1;57.9;;;;;;;12.9;100;951.7244;;;;
2019/04/09 09:34:35;;;;;;;68.1;59;;;;;;;12.53;100;951.7078;;;;
2019/04/09 09:36:55;;;;;;;71;58.7;;;;;;;12.64;100;951.6758;;;;
2019/04/09 09:39:20;;;;;;;69.5;59.9;;;;;;;12.19;100;951.6174;;;;
2019/04/09 09:41:53;;;;;;;74.2;61.3;;;;;;;12.27;100;951.6505;;;;
2019/04/09 09:44:25;;;;;;;72.3;60.8;;;;;;;12.31;100;951.6833;;;;
2019/04/09 09:49:17;;;;;;;64.5;54.6;;;;;;;12.88;100;951.6719;;;;
2019/04/09 09:54:44;;;;;;;63.4;52.6;;;;;;;13.38;100;951.5947;;;;
2019/04/09 09:58:51;;;;;;;67;57.4;;;;;;;13.18;100;951.5912;;;;
2019/04/09 10:03:39;;;;;;;61.7;52.8;;;;;;;13.73;100;951.5496;;;;
2019/04/09 10:07:25;;;;;;;60;53.2;;;;;;;13.89;100;951.5584;;;;
2019/04/09 10:08:21;;;;;;;63.7;54;;;;;;;13.93;100;951.5714;;;;
2019/04/09 10:13:15;;;;;;;59.2;50.9;;;;;;;14.43;100;951.5056;;;;
2019/04/09 10:15:53;;;;;;;55.9;48.4;;;;;;;14.31;100;951.5039;;;;
2019/04/09 10:20:35;;;;;;;60.4;53.4;;;;;;;13.77;100;951.4727;;;;
2019/04/09 10:25:15;;;;;;;53.4;46.6;;;;;;;13.95;100;951.4565;;;;
2019/04/09 10:27:51;;;;;;;56;49.3;;;;;;;14.18;100;951.4228;;;;
2019/04/09 10:30:11;;;;;;;55.8;47.9;;;;;;;13.74;100;951.4291;;;;
2019/04/09 10:45:19;;;;;;;52.8;47.1;;;;;;;14.04;100;951.3586;;;;
2019/04/09 10:50:17;;;;;;;56.5;48.4;;;;;;;13.63;100;951.2414;;;;
2019/04/09 10:52:42;;;;;;;64.9;51.2;;;;;;;13.76;100;951.3491;;;;
2019/04/09 10:57:43;;;;;;;57.3;50.3;;;;;;;13.9;100;951.3569;;;;
2019/04/09 11:00:04;;;;;;;58.9;50.9;;;;;;;13.72;100;951.3282;;;;
2019/04/09 11:02:22;;;;;;;57.6;49.8;;;;;;;13.54;100;951.3262;;;;
2019/04/09 11:05:16;;;;;;;54.7;48.7;;;;;;;13.48;100;951.2789;;;;
2019/04/09 11:07:18;;;;;;;57.2;50.2;;;;;;;13.08;100;951.3345;;;;
2019/04/09 11:14:57;;;;;;;56.4;49.5;;;;;;;14.25;100;951.3021;;;;
2019/04/09 11:17:20;;;;;;;57.8;48.2;;;;;;;14.12;100;951.2756;;;;
2019/04/09 11:21:59;;;;;;;56.7;48.5;;;;;;;13.97;100;951.2572;;;;
2019/04/09 11:33:44;;;;;;;59.4;49.1;;;;;;;14.2;100;951.2825;;;;
2019/04/09 11:36:23;;;;;;;54.3;48;;;;;;;13.98;100;951.3153;;;;
2019/04/09 11:38:33;;;;;;;52.7;47;;;;;;;14.04;100;951.3123;;;;
2019/04/09 11:41:00;;;;;;;53.2;46.3;;;;;;;14.33;100;951.2864;;;;
2019/04/09 11:43:40;;;;;;;52.7;46;;;;;;;14.77;97.53027;951.2195;;;;
2019/04/09 11:47:41;;;;;;;57.3;45.8;;;;;;;14.69;94.80664;951.2425;;;;
2019/04/09 11:48:33;;;;;;;51.4;44.8;;;;;;;15.06;90.85645;951.3081;;;;
2019/04/09 11:51:00;;;;;;;52.1;45.1;;;;;;;15.29;93.23633;951.2296;;;;
2019/04/09 12:00:02;;;;;;;48.3;42.4;;;;;;;16.08;85.72168;951.1503;;;;
2019/04/09 12:07:19;;;;;;;46.1;41.1;;;;;;;16.11;78.16309;951.1541;;;;
2019/04/09 12:09:43;;;;;;;43.4;38.9;;;;;;;16.46;79.40039;951.1227;;;;
2019/04/09 12:12:06;;;;;;;46.5;41.6;;;;;;;15.85;78.24414;951.1316;;;;
2019/04/09 12:14:38;;;;;;;44.9;40.1;;;;;;;15.93;80.6543;951.0594;;;;
2019/04/09 12:17:10;;;;;;;41.5;37;;;;;;;16.36;80.79199;951.0204;;;;
2019/04/09 12:19:26;;;;;;;45.3;40.3;;;;;;;17.18;72.87695;951.0224;;;;
2019/04/09 12:22:01;;;;;;;41.9;37.6;;;;;;;17.78;71.71387;950.9568;;;;
2019/04/09 12:24:08;;;;;;;43.1;38.7;;;;;;;18.18;69.61914;950.971;;;;
2019/04/09 12:26:36;;;;;;;45.3;40.4;;;;;;;18.65;67.30664;950.9526;;;;
2019/04/09 12:31:35;;;;;;;41.5;37.1;;;;;;;19.96;58.7959;950.913;;;;
2019/04/09 12:34:06;;;;;;;40.3;35.9;;;;;;;20.48;57.84473;950.88;;;;
2019/04/09 12:42:40;;;;;;;38.9;35;;;;;;;22.34;47.72168;950.8267;;;;
2019/04/09 12:54:56;;;;;;;38.1;34.6;;;;;;;22.88;46.9209;950.7107;;;;
2019/04/09 13:00:20;;;;;;;38.7;35;;;;;;;22.08;47.51563;950.7054;;;;
2019/04/09 13:02:16;;;;;;;32.5;29.5;;;;;;;22.95;46.12891;950.5634;;;;
2019/04/09 13:05:29;;;;;;;36.7;33.1;;;;;;;21.39;48.03613;950.5377;;;;
2019/04/09 13:06:58;;;;;;;40.7;36.9;;;;;;;20.68;50.73633;950.5097;;;;
2019/04/09 13:09:26;;;;;;;39.2;35.2;;;;;;;21.13;49.5166;950.5278;;;;
2019/04/09 13:11:46;;;;;;;39.7;36;;;;;;;20.1;51.64258;950.4803;;;;
2019/04/09 13:17:14;;;;;;;40.1;36.1;;;;;;;21.76;47.00391;950.4691;;;;
2019/04/09 13:19:33;;;;;;;39.1;35.1;;;;;;;22.3;45.32227;950.4256;;;;
2019/04/09 13:21:31;;;;;;;34.4;31.2;;;;;;;21.94;45.41699;950.3078;;;;
2019/04/09 13:23:49;;;;;;;37.1;33.4;;;;;;;21.88;46.57715;950.314;;;;
2019/04/09 13:26:43;;;;;;;35.9;32.3;;;;;;;21.92;45.49805;950.3025;;;;
2019/04/09 13:31:11;;;;;;;39;35.3;;;;;;;20.66;50.55566;950.2927;;;;
2019/04/09 13:34:19;;;;;;;39.3;35.3;;;;;;;20.73;50.20703;950.3025;;;;
2019/04/09 13:42:42;;;;;;;38.9;34.9;;;;;;;19.86;53.16699;950.2114;;;;
2019/04/09 13:45:53;;;;;;;38.3;34.5;;;;;;;19.65;53.48438;950.2108;;;;
2019/04/09 13:47:35;;;;;;;38.9;34.8;;;;;;;19.58;52.57617;950.1995;;;;
2019/04/09 13:50:34;;;;;;;38.8;34.7;;;;;;;18.93;54.31934;950.1797;;;;
2019/04/09 13:54:39;;;;;;;35.3;31.6;;;;;;;19.1;52.15234;950.0972;;;;
2019/04/09 13:57:04;;;;;;;32.7;28.8;;;;;;;19.08;50.68262;950.0837;;;;
2019/04/09 13:59:29;;;;;;;30.5;27.4;;;;;;;19.11;50.6748;950.1217;;;;
2019/04/09 14:01:55;;;;;;;34.1;30.4;;;;;;;18.98;51.94824;950.0173;;;;
2019/04/09 14:04:42;;;;;;;38.1;31.4;;;;;;;19.37;51.4502;950.0771;;;;
2019/04/09 14:06:46;;;;;;;33.1;29.6;;;;;;;19.43;49.65723;950.0559;;;;
2019/04/09 14:09:13;;;;;;;34;30.4;;;;;;;18.94;50.95117;950.0012;;;;
2019/04/09 14:11:38;;;;;;;36.4;32.7;;;;;;;17.92;54.69141;950.0527;;;;
2019/04/09 14:14:03;;;;;;;31.6;28.3;;;;;;;18.57;52.56152;950.093;;;;
2019/04/09 14:16:28;;;;;;;32.5;29.2;;;;;;;18.56;52.92773;950.0463;;;;
2019/04/09 14:18:53;;;;;;;35.6;31.8;;;;;;;18.13;53.7832;950.0518;;;;
2019/04/09 14:21:18;;;;;;;32.6;29.1;;;;;;;18.49;53.39063;949.9969;;;;
2019/04/09 14:23:44;;;;;;;35;30.4;;;;;;;18.39;53.38965;950.0168;;;;
2019/04/09 14:26:09;;;;;;;33.6;28.9;;;;;;;19.04;51.12891;949.9031;;;;
2019/04/09 14:28:34;;;;;;;32.5;29;;;;;;;18.62;52.08398;949.9257;;;;
2019/04/09 14:31:00;;;;;;;30.9;27.8;;;;;;;18.92;51.92871;949.9659;;;;
2019/04/09 14:33:25;;;;;;;38.6;32.6;;;;;;;19.39;49.90137;949.9062;;;;
2019/04/09 14:35:51;;;;;;;32.5;29.1;;;;;;;19.27;50.06543;949.8419;;;;
2019/04/09 14:38:16;;;;;;;30.8;27.7;;;;;;;19.33;50.00195;949.8495;;;;
2019/04/09 14:40:42;;;;;;;33.8;30.3;;;;;;;19.2;50.80273;949.823;;;;
2019/04/09 14:43:10;;;;;;;35.7;31.8;;;;;;;19.2;50.16504;949.7787;;;;
2019/04/09 14:45:32;;;;;;;31.2;27.9;;;;;;;19.47;50.06445;949.8246;;;;
2019/04/09 14:47:58;;;;;;;31.7;28.5;;;;;;;19.65;49.41016;949.7132;;;;
2019/04/09 14:50:23;;;;;;;40.3;32.4;;;;;;;20.33;47.8252;949.7142;;;;
2019/04/09 14:52:49;;;;;;;33.3;29.7;;;;;;;20.66;45.87891;949.7123;;;;
2019/04/09 14:55:15;;;;;;;31;27.4;;;;;;;20.35;47.75684;949.6976;;;;
2019/04/09 14:57:41;;;;;;;37.5;33.6;;;;;;;20.44;49.68848;949.7645;;;;
2019/04/09 15:00:14;;;;;;;37.2;31.9;;;;;;;20.33;50.48242;949.7531;;;;
2019/04/09 15:02:35;;;;;;;35.8;32.1;;;;;;;20.32;50.08984;949.7374;;;;
2019/04/09 15:04:59;;;;;;;36;32.1;;;;;;;20.15;50.95996;949.7247;;;;
2019/04/09 15:07:24;;;;;;;36.2;32.4;;;;;;;19.96;52.20703;949.7068;;;;
2019/04/09 15:09:49;;;;;;;37.5;33.4;;;;;;;19.88;52.04199;949.7432;;;;
2019/04/09 15:12:14;;;;;;;40.3;36.2;;;;;;;19.47;53.10742;949.7029;;;;
2019/04/09 15:14:39;;;;;;;42.6;38.1;;;;;;;19.02;54.73242;949.6789;;;;
2019/04/09 15:17:04;;;;;;;38.2;34.2;;;;;;;18.81;55.51074;949.6624;;;;
2019/04/09 15:19:29;;;;;;;40;35.7;;;;;;;18.82;55.9375;949.717;;;;
2019/04/09 15:22:00;;;;;;;40.4;35;;;;;;;18.5;56.14551;949.7231;;;;
2019/04/09 15:24:22;;;;;;;38.4;34.2;;;;;;;18.59;56.29785;949.7402;;;;
2019/04/09 15:26:47;;;;;;;37.6;33.6;;;;;;;18.42;57.33887;949.6889;;;;
2019/04/09 15:29:12;;;;;;;39.4;34.3;;;;;;;18.75;56.68555;949.6459;;;;
2019/04/09 15:31:37;;;;;;;38.4;34.5;;;;;;;18.78;56.19238;949.6892;;;;
2019/04/09 15:34:03;;;;;;;41.7;37.2;;;;;;;18.75;56.24805;949.7156;;;;
2019/04/09 15:36:29;;;;;;;35.9;32.2;;;;;;;18.76;56.48438;949.637;;;;
2019/04/09 15:38:54;;;;;;;38.5;34.5;;;;;;;18.73;57.0127;949.6415;;;;
2019/04/09 15:41:19;;;;;;;37.9;33.8;;;;;;;18.67;57.49023;949.6291;;;;
2019/04/09 15:43:44;;;;;;;38.6;34.6;;;;;;;18.66;57.86621;949.6002;;;;
2019/04/09 15:46:09;;;;;;;44.9;40.2;;;;;;;18.5;58.03418;949.5948;;;;
2019/04/09 15:48:37;;;;;;;39.8;35.6;;;;;;;17.98;59.93652;949.6092;;;;
2019/04/09 15:50:59;;;;;;;43.6;39;;;;;;;18.01;59.82227;949.6512;;;;
2019/04/09 15:53:26;;;;;;;56.1;49;;;;;;;17.92;59.14941;949.6092;;;;
2019/04/09 15:55:51;;;;;;;45.7;40.9;;;;;;;17.73;60.30273;949.5823;;;;
2019/04/09 15:58:17;;;;;;;43.3;38.8;;;;;;;17.42;61.79297;949.6063;;;;
2019/04/09 16:00:42;;;;;;;40.1;35.7;;;;;;;17.45;61.71387;949.5667;;;;
2019/04/09 16:03:10;;;;;;;41.1;36.8;;;;;;;17.37;62.91797;949.5872;;;;
2019/04/09 16:05:42;;;;;;;42.6;38.1;;;;;;;17.29;65.51953;949.5903;;;;
2019/04/09 16:08:14;;;;;;;41.2;36.8;;;;;;;17.2;67.25;949.5223;;;;
2019/04/09 16:10:53;;;;;;;61.3;54.6;;;;;;;17.32;67.24512;949.5562;;;;
2019/04/09 16:13:18;;;;;;;47.3;42.1;;;;;;;17.02;68.35254;949.5711;;;;
2019/04/09 16:15:45;;;;;;;44.8;40;;;;;;;17.04;69.19336;949.5756;;;;
2019/04/09 16:18:14;;;;;;;46;41;;;;;;;17.14;68.20605;949.6347;;;;
2019/04/09 16:20:49;;;;;;;44.5;39.7;;;;;;;17.14;68.1709;949.6308;;;;
2019/04/09 16:23:16;;;;;;;48.9;43.7;;;;;;;17.06;68.34766;949.7064;;;;
2019/04/09 16:25:54;;;;;;;43.6;38.9;;;;;;;16.87;68.89453;949.6569;;;;
2019/04/09 16:28:24;;;;;;;43.7;39.1;;;;;;;16.86;68.8457;949.6669;;;;
2019/04/09 16:31:03;;;;;;;46.4;41.5;;;;;;;16.7;69.31445;949.7039;;;;
2019/04/09 16:33:39;;;;;;;77.9;67.1;;;;;;;16.54;69.81836;949.7092;;;;
2019/04/09 16:36:13;;;;;;;56.9;50.5;;;;;;;16.34;71.00879;949.7087;;;;
2019/04/09 16:38:46;;;;;;;58.2;49.9;;;;;;;16.1;72.08594;949.764;;;;
2019/04/09 16:41:22;;;;;;;48.4;43;;;;;;;15.74;74.55078;949.7335;;;;
2019/04/09 16:43:58;;;;;;;46.6;41.6;;;;;;;15.63;76.26953;949.7883;;;;
2019/04/09 16:46:38;;;;;;;47.8;42.2;;;;;;;15.48;77.15723;949.745;;;;
2019/04/09 16:49:15;;;;;;;50.7;42.3;;;;;;;15.31;79.30957;949.755;;;;
2019/04/09 16:51:48;;;;;;;48.1;42.8;;;;;;;15.15;78.90527;949.7439;;;;
2019/04/09 16:54:24;;;;;;;41;35.7;;;;;;;14.76;78.01367;949.8058;;;;
2019/04/09 16:57:05;;;;;;;42.2;37.6;;;;;;;14.27;81.34375;949.8214;;;;
2019/04/09 16:59:41;;;;;;;43.1;38.4;;;;;;;14.37;82.53223;949.7904;;;;
2019/04/09 17:02:12;;;;;;;42;37.4;;;;;;;14.32;83.09766;949.8143;;;;
2019/04/09 17:04:50;;;;;;;52.6;44.1;;;;;;;14.3;82.8584;949.7997;;;;
2019/04/09 17:07:19;;;;;;;42.2;37.5;;;;;;;14.23;81.8252;949.793;;;;
2019/04/09 17:09:49;;;;;;;47.2;39.9;;;;;;;14.17;83.33594;949.8217;;;;
2019/04/09 17:12:16;;;;;;;50.6;42.8;;;;;;;14.01;79.69238;949.8135;;;;
2019/04/09 17:14:41;;;;;;;35.8;30.8;;;;;;;13.87;80.01855;949.8831;;;;
2019/04/09 17:17:10;;;;;;;32.5;29;;;;;;;13.78;80.29492;949.8953;;;;
2019/04/09 17:19:40;;;;;;;31.1;27.7;;;;;;;13.65;80.25879;949.9006;;;;
2019/04/09 17:22:20;;;;;;;29;25.8;;;;;;;13.5;80.80273;949.8602;;;;
2019/04/09 17:24:59;;;;;;;31.7;28.3;;;;;;;13.43;81.75879;949.8219;;;;
2019/04/09 17:27:36;;;;;;;27.4;24.4;;;;;;;13.34;82.33789;949.8299;;;;
2019/04/09 17:30:09;;;;;;;30.4;26.3;;;;;;;13.19;82.7168;949.9141;;;;
2019/04/09 17:32:38;;;;;;;30.4;27.1;;;;;;;13.12;82.66895;949.9022;;;;
2019/04/09 17:35:03;;;;;;;29.1;24.7;;;;;;;13.01;84.5498;949.9796;;;;
2019/04/09 17:37:28;;;;;;;29.8;25.9;;;;;;;12.91;85.00781;949.9718;;;;
2019/04/09 17:39:54;;;;;;;32.4;28;;;;;;;12.81;86.20117;949.9677;;;;
2019/04/09 17:42:19;;;;;;;25.9;23.2;;;;;;;12.74;86.88672;949.8867;;;;
2019/04/09 17:44:46;;;;;;;29.1;26;;;;;;;12.68;86.97852;949.9627;;;;
2019/04/09 17:47:12;;;;;;;38.7;33.9;;;;;;;12.66;87.78125;949.9645;;;;
2019/04/09 17:49:37;;;;;;;26.5;23.6;;;;;;;12.65;88.10352;949.9961;;;;
2019/04/09 17:52:02;;;;;;;35.5;30.2;;;;;;;12.65;87.67285;950.0217;;;;
2019/04/09 17:54:31;;;;;;;27.9;23.9;;;;;;;12.64;88.19727;950.0058;;;;
2019/04/09 17:56:53;;;;;;;26;23.2;;;;;;;12.61;88.69141;950.0316;;;;
2019/04/09 17:59:18;;;;;;;28.3;25.3;;;;;;;12.58;89.61621;950.0737;;;;
2019/04/09 18:01:46;;;;;;;27.6;24.6;;;;;;;12.52;90.8291;950.0984;;;;
2019/04/09 18:04:11;;;;;;;29.2;26.1;;;;;;;12.47;92.21387;950.0756;;;;
2019/04/09 18:06:36;;;;;;;30;26.8;;;;;;;12.42;94.01172;950.1494;;;;
2019/04/09 18:09:02;;;;;;;32.5;28.2;;;;;;;12.39;95.16895;950.1107;;;;
2019/04/09 18:11:31;;;;;;;31.6;28.1;;;;;;;12.37;96.69141;950.1944;;;;
2019/04/09 18:14:01;;;;;;;33.6;29.6;;;;;;;12.33;99.11523;950.1786;;;;
2019/04/09 18:16:29;;;;;;;34.3;30.1;;;;;;;12.24;100;950.1725;;;;
2019/04/09 18:19:02;;;;;;;36.3;32.1;;;;;;;12.2;100;950.2206;;;;
2019/04/09 18:21:30;;;;;;;41.1;35.3;;;;;;;12.14;100;950.1769;;;;
2019/04/09 18:23:58;;;;;;;46.9;38.8;;;;;;;12.06;100;950.2119;;;;
2019/04/09 18:26:23;;;;;;;41.8;35.7;;;;;;;12.02;100;950.2255;;;;
2019/04/09 18:28:48;;;;;;;41.5;34.6;;;;;;;12;100;950.2413;;;;
2019/04/09 18:31:15;;;;;;;45.9;39.1;;;;;;;11.97;100;950.2285;;;;
2019/04/09 18:33:40;;;;;;;42.1;37.5;;;;;;;11.94;100;950.2706;;;;
2019/04/09 18:36:05;;;;;;;40.5;35.7;;;;;;;11.9;100;950.2754;;;;
2019/04/09 18:38:30;;;;;;;45.2;37.3;;;;;;;11.82;100;950.2728;;;;
2019/04/09 18:40:55;;;;;;;45;37.4;;;;;;;11.69;100;950.2545;;;;
2019/04/09 18:43:21;;;;;;;53.4;45.3;;;;;;;11.57;100;950.2947;;;;
2019/04/09 18:45:51;;;;;;;51;43.8;;;;;;;11.47;100;950.2349;;;;
2019/04/09 18:48:16;;;;;;;53.6;46;;;;;;;11.37;100;950.2548;;;;
2019/04/09 18:50:41;;;;;;;53.9;45.1;;;;;;;11.28;100;950.2455;;;;
2019/04/09 18:53:23;;;;;;;56.5;46.9;;;;;;;11.17;100;950.2671;;;;
2019/04/09 18:55:49;;;;;;;63.9;50.9;;;;;;;11.08;100;950.3166;;;;
2019/04/09 18:58:16;;;;;;;60.9;50.7;;;;;;;10.96;100;950.3147;;;;
2019/04/09 19:01:01;;;;;;;60;50.5;;;;;;;10.81;100;950.2642;;;;
2019/04/09 19:03:17;;;;;;;69.7;56.6;;;;;;;10.65;100;950.2363;;;;
2019/04/09 19:05:42;;;;;;;76.2;61.7;;;;;;;10.54;100;950.2498;;;;
2019/04/09 19:08:07;;;;;;;80.8;63;;;;;;;10.46;100;950.2587;;;;
2019/04/09 19:10:33;;;;;;;73.8;58.1;;;;;;;10.37;100;950.2321;;;;
2019/04/09 19:13:00;;;;;;;86.7;66.1;;;;;;;10.37;100;950.1937;;;;
2019/04/09 19:15:24;;;;;;;88.1;66.8;;;;;;;10.31;100;950.1747;;;;
2019/04/09 19:17:50;;;;;;;82.9;63.5;;;;;;;10.32;100;950.1521;;;;
2019/04/09 19:20:15;;;;;;;78.3;62.1;;;;;;;10.3;100;950.1979;;;;
2019/04/09 19:22:46;;;;;;;78.8;61.1;;;;;;;10.34;100;950.2358;;;;
2019/04/09 19:25:12;;;;;;;79.6;63.1;;;;;;;10.38;100;950.2687;;;;
2019/04/09 19:27:37;;;;;;;74.9;58.6;;;;;;;10.4;100;950.2414;;;;
2019/04/09 19:30:04;;;;;;;72.7;57.7;;;;;;;10.47;100;950.2156;;;;
2019/04/09 19:33:17;;;;;;;71.2;56.7;;;;;;;10.5;100;950.2756;;;;
2019/04/09 19:34:57;;;;;;;68.4;56;;;;;;;10.53;100;950.2722;;;;
2019/04/09 19:37:23;;;;;;;68.3;54.4;;;;;;;10.58;100;950.3083;;;;
2019/04/09 19:42:14;;;;;;;62.2;51.4;;;;;;;10.63;100;950.3323;;;;
2019/04/09 19:44:45;;;;;;;63.5;51.2;;;;;;;10.57;100;950.3697;;;;
2019/04/09 19:47:10;;;;;;;55.8;49.1;;;;;;;10.53;100;950.3184;;;;
2019/04/09 19:49:40;;;;;;;54.8;47.6;;;;;;;10.51;100;950.3084;;;;
2019/04/09 19:52:07;;;;;;;56;46.9;;;;;;;10.45;100;950.2862;;;;
2019/04/09 19:54:33;;;;;;;54.1;45.5;;;;;;;10.39;100;950.3443;;;;
2019/04/09 19:56:57;;;;;;;51.9;44.8;;;;;;;10.4;100;950.318;;;;
2019/04/09 19:59:23;;;;;;;59.6;49.2;;;;;;;10.41;100;950.3504;;;;
2019/04/09 20:01:48;;;;;;;58.6;49;;;;;;;10.4;100;950.2797;;;;
2019/04/09 20:04:14;;;;;;;56;47.8;;;;;;;10.43;100;950.267;;;;
2019/04/09 20:06:38;;;;;;;57.9;49;;;;;;;10.42;100;950.2857;;;;
2019/04/09 20:09:06;;;;;;;56.8;45;;;;;;;10.43;100;950.3017;;;;
2019/04/09 20:11:28;;;;;;;55.6;47.7;;;;;;;10.4;100;950.3475;;;;
2019/04/09 20:13:54;;;;;;;56.7;48.7;;;;;;;10.4;100;950.2924;;;;
2019/04/09 20:16:22;;;;;;;55;46.8;;;;;;;10.38;100;950.3031;;;;
2019/04/09 20:18:46;;;;;;;51.9;46.2;;;;;;;10.34;100;950.269;;;;
2019/04/09 20:21:13;;;;;;;52.8;46.3;;;;;;;10.32;100;950.3396;;;;
2019/04/09 20:23:38;;;;;;;56.1;49.3;;;;;;;10.3;100;950.312;;;;
2019/04/09 20:26:04;;;;;;;58.1;48.2;;;;;;;10.31;100;950.2689;;;;
2019/04/09 20:28:29;;;;;;;51.7;45.1;;;;;;;10.27;100;950.3116;;;;
2019/04/09 20:30:59;;;;;;;56.2;49.2;;;;;;;10.25;100;950.3772;;;;
2019/04/09 20:33:27;;;;;;;56.8;49.5;;;;;;;10.24;100;950.3408;;;;